sensor_id;sensor_type;location;lat;lon;timestamp;pressure;altitude;pressure_sealevel;temperature;humidity
86320;BME280;76974;51.278;16.870;2024-03-17T03:02:10;100725.13;;;1.06;87.79
86320;BME280;76974;51.278;16.870;2024-03-17T03:04:36;100727.16;;;1.02;88.72
86320;BME280;76974;51.278;16.870;2024-03-17T03:07:02;100729.22;;;1.10;88.69
86320;BME280;76974;51.278;16.870;2024-03-17T03:09:27;100729.72;;;1.04;88.29
86320;BME280;76974;51.278;16.870;2024-03-17T03:12:02;100739.59;;;0.91;89.20
86320;BME280;76974;51.278;16.870;2024-03-17T03:14:29;100731.94;;;0.86;89.21
86320;BME280;76974;51.278;16.870;2024-03-17T03:16:55;100737.63;;;0.82;89.78
86320;BME280;76974;51.278;16.870;2024-03-17T03:19:21;100731.44;;;0.81;89.41
86320;BME280;76974;51.278;16.870;2024-03-17T03:21:46;100735.69;;;0.84;89.72
86320;BME280;76974;51.278;16.870;2024-03-17T03:24:15;100737.81;;;0.67;89.95
86320;BME280;76974;51.278;16.870;2024-03-17T03:26:41;100734.41;;;0.65;90.27
86320;BME280;76974;51.278;16.870;2024-03-17T03:29:07;100728.44;;;0.62;91.00
86320;BME280;76974;51.278;16.870;2024-03-17T03:31:33;100733.84;;;0.73;90.65
86320;BME280;76974;51.278;16.870;2024-03-17T03:33:59;100743.09;;;0.56;90.50
86320;BME280;76974;51.278;16.870;2024-03-17T03:36:28;100742.31;;;0.78;90.34
86320;BME280;76974;51.278;16.870;2024-03-17T03:38:55;100738.66;;;0.44;90.71
86320;BME280;76974;51.278;16.870;2024-03-17T03:41:23;100740.19;;;0.59;90.28
86320;BME280;76974;51.278;16.870;2024-03-17T03:43:49;100740.38;;;0.32;90.68
86320;BME280;76974;51.278;16.870;2024-03-17T03:46:14;100735.19;;;0.55;91.12
86320;BME280;76974;51.278;16.870;2024-03-17T03:48:40;100734.47;;;0.53;90.12
86320;BME280;76974;51.278;16.870;2024-03-17T03:51:07;100734.34;;;0.54;90.64
86320;BME280;76974;51.278;16.870;2024-03-17T03:53:34;100735.56;;;0.61;90.99
86320;BME280;76974;51.278;16.870;2024-03-17T03:56:03;100728.44;;;0.38;90.41
86320;BME280;76974;51.278;16.870;2024-03-17T03:58:35;100734.72;;;0.37;90.88
86320;BME280;76974;51.278;16.870;2024-03-17T04:01:08;100730.41;;;0.23;91.01
86320;BME280;76974;51.278;16.870;2024-03-17T04:03:35;100743.69;;;-0.01;91.32
86320;BME280;76974;51.278;16.870;2024-03-17T04:06:08;100743.88;;;0.09;92.09
86320;BME280;76974;51.278;16.870;2024-03-17T04:08:35;100736.16;;;0.30;91.01
86320;BME280;76974;51.278;16.870;2024-03-17T04:11:02;100746.81;;;0.30;90.63
86320;BME280;76974;51.278;16.870;2024-03-17T04:13:31;100744.00;;;0.44;90.24
86320;BME280;76974;51.278;16.870;2024-03-17T04:15:57;100744.63;;;0.35;90.18
86320;BME280;76974;51.278;16.870;2024-03-17T04:18:25;100743.78;;;0.82;88.55
86320;BME280;76974;51.278;16.870;2024-03-17T04:20:52;100748.47;;;0.44;89.53
86320;BME280;76974;51.278;16.870;2024-03-17T04:23:20;100749.28;;;0.20;90.31
86320;BME280;76974;51.278;16.870;2024-03-17T04:25:47;100748.63;;;0.29;90.23
86320;BME280;76974;51.278;16.870;2024-03-17T04:28:14;100745.06;;;0.42;90.55
86320;BME280;76974;51.278;16.870;2024-03-17T04:30:40;100741.53;;;0.41;89.68
86320;BME280;76974;51.278;16.870;2024-03-17T04:33:08;100751.25;;;0.42;90.41
86320;BME280;76974;51.278;16.870;2024-03-17T04:35:38;100751.25;;;0.42;90.07
86320;BME280;76974;51.278;16.870;2024-03-17T04:38:04;100763.28;;;0.35;90.47
86320;BME280;76974;51.278;16.870;2024-03-17T04:40:32;100752.75;;;0.33;90.36
86320;BME280;76974;51.278;16.870;2024-03-17T04:42:58;100771.50;;;0.32;90.58
86320;BME280;76974;51.278;16.870;2024-03-17T04:45:23;100760.47;;;0.49;90.28
86320;BME280;76974;51.278;16.870;2024-03-17T04:47:49;100769.66;;;0.45;90.55
86320;BME280;76974;51.278;16.870;2024-03-17T04:50:15;100774.56;;;0.39;90.31
86320;BME280;76974;51.278;16.870;2024-03-17T04:52:41;100776.53;;;0.60;89.52
86320;BME280;76974;51.278;16.870;2024-03-17T04:55:07;100775.09;;;0.67;89.60
86320;BME280;76974;51.278;16.870;2024-03-17T04:57:33;100779.25;;;0.72;88.90
86320;BME280;76974;51.278;16.870;2024-03-17T04:59:58;100771.81;;;0.64;89.14
86320;BME280;76974;51.278;16.870;2024-03-17T05:02:24;100778.22;;;0.85;88.13
86320;BME280;76974;51.278;16.870;2024-03-17T05:04:50;100788.44;;;0.67;89.06
86320;BME280;76974;51.278;16.870;2024-03-17T05:07:16;100772.28;;;0.58;89.44
86320;BME280;76974;51.278;16.870;2024-03-17T05:09:42;100782.41;;;0.53;89.30
86320;BME280;76974;51.278;16.870;2024-03-17T05:12:09;100783.84;;;0.46;90.11
86320;BME280;76974;51.278;16.870;2024-03-17T05:14:35;100780.94;;;0.73;88.72
86320;BME280;76974;51.278;16.870;2024-03-17T05:17:01;100786.84;;;0.89;88.73
86320;BME280;76974;51.278;16.870;2024-03-17T05:19:27;100783.50;;;0.74;88.60
86320;BME280;76974;51.278;16.870;2024-03-17T05:21:52;100775.59;;;0.96;87.74
86320;BME280;76974;51.278;16.870;2024-03-17T05:24:18;100782.59;;;0.86;88.63
86320;BME280;76974;51.278;16.870;2024-03-17T05:26:44;100774.41;;;0.77;88.17
86320;BME280;76974;51.278;16.870;2024-03-17T05:29:11;100788.25;;;1.05;87.17
86320;BME280;76974;51.278;16.870;2024-03-17T05:31:37;100784.44;;;0.97;87.68
86320;BME280;76974;51.278;16.870;2024-03-17T05:34:09;100782.53;;;0.99;87.05
86320;BME280;76974;51.278;16.870;2024-03-17T05:36:36;100783.94;;;1.16;86.74
86320;BME280;76974;51.278;16.870;2024-03-17T05:39:02;100788.44;;;1.26;86.66
86320;BME280;76974;51.278;16.870;2024-03-17T05:41:28;100782.03;;;1.40;85.65
86320;BME280;76974;51.278;16.870;2024-03-17T05:43:54;100791.19;;;1.49;84.70
86320;BME280;76974;51.278;16.870;2024-03-17T05:46:24;100788.00;;;1.55;84.23
86320;BME280;76974;51.278;16.870;2024-03-17T05:48:54;100793.63;;;1.74;84.47
86320;BME280;76974;51.278;16.870;2024-03-17T05:51:20;100789.03;;;1.76;82.99
86320;BME280;76974;51.278;16.870;2024-03-17T05:53:46;100804.31;;;1.85;82.84
86320;BME280;76974;51.278;16.870;2024-03-17T05:56:12;100801.06;;;2.04;82.03
86320;BME280;76974;51.278;16.870;2024-03-17T05:58:39;100804.81;;;2.01;82.51
86320;BME280;76974;51.278;16.870;2024-03-17T06:01:05;100801.78;;;2.17;81.13
86320;BME280;76974;51.278;16.870;2024-03-17T06:03:35;100792.44;;;2.23;81.52
86320;BME280;76974;51.278;16.870;2024-03-17T06:06:05;100793.16;;;2.36;80.64
86320;BME280;76974;51.278;16.870;2024-03-17T06:08:35;100793.63;;;2.52;79.84
86320;BME280;76974;51.278;16.870;2024-03-17T06:11:01;100808.66;;;2.64;79.09
86320;BME280;76974;51.278;16.870;2024-03-17T06:13:27;100810.72;;;2.61;79.21
86320;BME280;76974;51.278;16.870;2024-03-17T06:15:54;100807.31;;;2.70;78.91
86320;BME280;76974;51.278;16.870;2024-03-17T06:18:19;100807.31;;;2.70;79.71
86320;BME280;76974;51.278;16.870;2024-03-17T06:20:46;100814.22;;;2.83;78.23
86320;BME280;76974;51.278;16.870;2024-03-17T06:23:14;100821.44;;;3.04;76.86
86320;BME280;76974;51.278;16.870;2024-03-17T06:25:41;100824.56;;;3.09;76.91
86320;BME280;76974;51.278;16.870;2024-03-17T06:28:08;100830.66;;;3.64;76.59
86320;BME280;76974;51.278;16.870;2024-03-17T06:30:35;100830.81;;;3.30;76.67
86320;BME280;76974;51.278;16.870;2024-03-17T06:33:01;100845.09;;;2.88;77.27
86320;BME280;76974;51.278;16.870;2024-03-17T06:35:27;100837.63;;;2.91;77.89
86320;BME280;76974;51.278;16.870;2024-03-17T06:37:55;100833.69;;;3.17;75.79
86320;BME280;76974;51.278;16.870;2024-03-17T06:40:23;100831.16;;;3.37;77.40
86320;BME280;76974;51.278;16.870;2024-03-17T06:42:50;100836.28;;;3.61;75.29
86320;BME280;76974;51.278;16.870;2024-03-17T06:45:17;100844.22;;;3.72;76.90
86320;BME280;76974;51.278;16.870;2024-03-17T06:47:46;100844.53;;;3.99;74.35
86320;BME280;76974;51.278;16.870;2024-03-17T06:50:12;100849.34;;;3.75;75.25
86320;BME280;76974;51.278;16.870;2024-03-17T06:52:37;100842.41;;;3.93;73.64
86320;BME280;76974;51.278;16.870;2024-03-17T06:55:04;100844.50;;;4.50;71.94
86320;BME280;76974;51.278;16.870;2024-03-17T06:57:32;100857.56;;;4.34;73.68
86320;BME280;76974;51.278;16.870;2024-03-17T06:59:59;100842.25;;;4.15;72.13
86320;BME280;76974;51.278;16.870;2024-03-17T07:02:25;100844.13;;;4.65;71.54
86320;BME280;76974;51.278;16.870;2024-03-17T07:04:50;100850.94;;;4.78;69.16
86320;BME280;76974;51.278;16.870;2024-03-17T07:07:16;100853.09;;;4.94;71.78
86320;BME280;76974;51.278;16.870;2024-03-17T07:09:42;100842.94;;;4.48;69.65
86320;BME280;76974;51.278;16.870;2024-03-17T07:12:09;100848.03;;;5.01;70.11
86320;BME280;76974;51.278;16.870;2024-03-17T07:14:35;100847.94;;;4.62;70.72
86320;BME280;76974;51.278;16.870;2024-03-17T07:17:01;100858.44;;;4.44;70.85
86320;BME280;76974;51.278;16.870;2024-03-17T07:19:27;100856.47;;;4.46;71.50
86320;BME280;76974;51.278;16.870;2024-03-17T07:21:54;100860.13;;;4.76;73.12
86320;BME280;76974;51.278;16.870;2024-03-17T07:24:20;100855.59;;;4.67;70.85
86320;BME280;76974;51.278;16.870;2024-03-17T07:26:49;100856.63;;;4.94;69.28
86320;BME280;76974;51.278;16.870;2024-03-17T07:29:16;100854.38;;;4.50;69.89
86320;BME280;76974;51.278;16.870;2024-03-17T07:31:42;100852.31;;;4.23;70.00
86320;BME280;76974;51.278;16.870;2024-03-17T07:34:07;100842.56;;;4.62;70.64
86320;BME280;76974;51.278;16.870;2024-03-17T07:36:34;100847.78;;;4.54;71.09
86320;BME280;76974;51.278;16.870;2024-03-17T07:39:00;100856.19;;;4.40;69.57
86320;BME280;76974;51.278;16.870;2024-03-17T07:41:27;100865.16;;;4.29;71.21
86320;BME280;76974;51.278;16.870;2024-03-17T07:43:53;100868.84;;;4.07;69.76
86320;BME280;76974;51.278;16.870;2024-03-17T07:46:19;100862.44;;;4.19;71.50
86320;BME280;76974;51.278;16.870;2024-03-17T07:48:46;100857.88;;;4.81;68.27
86320;BME280;76974;51.278;16.870;2024-03-17T07:51:14;100855.59;;;4.76;64.61
86320;BME280;76974;51.278;16.870;2024-03-17T07:53:42;100855.16;;;5.50;68.60
86320;BME280;76974;51.278;16.870;2024-03-17T07:56:09;100851.56;;;5.88;67.32
86320;BME280;76974;51.278;16.870;2024-03-17T07:58:36;100858.94;;;5.28;64.21
86320;BME280;76974;51.278;16.870;2024-03-17T08:01:10;100852.28;;;5.13;62.54
86320;BME280;76974;51.278;16.870;2024-03-17T08:03:38;100847.94;;;5.41;63.18
86320;BME280;76974;51.278;16.870;2024-03-17T08:06:08;100846.34;;;5.67;61.00
86320;BME280;76974;51.278;16.870;2024-03-17T08:08:34;100843.13;;;5.44;64.38
86320;BME280;76974;51.278;16.870;2024-03-17T08:11:01;100844.06;;;5.05;62.73
86320;BME280;76974;51.278;16.870;2024-03-17T08:13:29;100845.63;;;4.98;64.19
86320;BME280;76974;51.278;16.870;2024-03-17T08:16:02;100858.66;;;5.70;64.44
86320;BME280;76974;51.278;16.870;2024-03-17T08:18:28;100844.69;;;5.27;65.30
86320;BME280;76974;51.278;16.870;2024-03-17T08:20:54;100848.75;;;5.22;63.59
86320;BME280;76974;51.278;16.870;2024-03-17T08:23:21;100851.75;;;5.38;64.03
86320;BME280;76974;51.278;16.870;2024-03-17T08:25:55;100848.47;;;5.06;61.07
86320;BME280;76974;51.278;16.870;2024-03-17T08:28:21;100847.50;;;5.64;63.82
86320;BME280;76974;51.278;16.870;2024-03-17T08:30:58;100840.88;;;5.30;61.51
86320;BME280;76974;51.278;16.870;2024-03-17T08:33:25;100835.16;;;4.94;60.97
86320;BME280;76974;51.278;16.870;2024-03-17T08:38:20;100855.38;;;5.85;59.09
86320;BME280;76974;51.278;16.870;2024-03-17T08:40:48;100851.03;;;5.36;61.88
86320;BME280;76974;51.278;16.870;2024-03-17T08:43:14;100832.75;;;4.91;60.73
86320;BME280;76974;51.278;16.870;2024-03-17T08:45:40;100837.25;;;4.81;61.04
86320;BME280;76974;51.278;16.870;2024-03-17T08:48:07;100853.00;;;5.15;64.48
86320;BME280;76974;51.278;16.870;2024-03-17T08:50:35;100796.44;;;4.78;61.75
86320;BME280;76974;51.278;16.870;2024-03-17T08:53:05;100852.13;;;4.95;61.52
86320;BME280;76974;51.278;16.870;2024-03-17T08:55:32;100818.22;;;4.94;59.67
86320;BME280;76974;51.278;16.870;2024-03-17T08:57:58;100848.75;;;5.51;60.74
86320;BME280;76974;51.278;16.870;2024-03-17T09:00:26;100810.31;;;4.92;58.27
86320;BME280;76974;51.278;16.870;2024-03-17T09:02:54;100798.19;;;5.08;61.92
86320;BME280;76974;51.278;16.870;2024-03-17T09:05:22;100851.31;;;5.52;59.56
86320;BME280;76974;51.278;16.870;2024-03-17T09:07:59;100851.34;;;5.33;59.17
86320;BME280;76974;51.278;16.870;2024-03-17T09:10:27;100841.75;;;6.25;60.08
86320;BME280;76974;51.278;16.870;2024-03-17T09:12:55;100828.94;;;6.00;58.15
86320;BME280;76974;51.278;16.870;2024-03-17T09:15:22;100845.34;;;5.87;60.87
86320;BME280;76974;51.278;16.870;2024-03-17T09:17:47;100849.38;;;6.57;58.44
86320;BME280;76974;51.278;16.870;2024-03-17T09:20:13;100846.34;;;6.97;59.75
86320;BME280;76974;51.278;16.870;2024-03-17T09:22:43;100853.16;;;6.37;57.29
86320;BME280;76974;51.278;16.870;2024-03-17T09:25:10;100831.50;;;6.39;57.55
86320;BME280;76974;51.278;16.870;2024-03-17T09:27:38;100846.56;;;7.04;53.35
86320;BME280;76974;51.278;16.870;2024-03-17T09:30:07;100824.97;;;8.36;58.50
86320;BME280;76974;51.278;16.870;2024-03-17T09:32:35;100839.69;;;7.55;54.71
86320;BME280;76974;51.278;16.870;2024-03-17T09:35:03;100854.69;;;6.77;55.04
86320;BME280;76974;51.278;16.870;2024-03-17T09:37:31;100857.78;;;6.82;57.27
86320;BME280;76974;51.278;16.870;2024-03-17T09:40:00;100842.88;;;6.60;60.57
86320;BME280;76974;51.278;16.870;2024-03-17T09:42:27;100846.69;;;6.57;58.52
86320;BME280;76974;51.278;16.870;2024-03-17T09:44:54;100848.00;;;6.53;58.65
86320;BME280;76974;51.278;16.870;2024-03-17T09:47:24;100862.31;;;6.81;60.99
86320;BME280;76974;51.278;16.870;2024-03-17T09:49:52;100858.22;;;6.50;61.72
86320;BME280;76974;51.278;16.870;2024-03-17T09:52:21;100849.81;;;6.25;57.12
86320;BME280;76974;51.278;16.870;2024-03-17T09:54:53;100862.91;;;7.02;56.25
86320;BME280;76974;51.278;16.870;2024-03-17T09:57:22;100852.69;;;6.51;57.27
86320;BME280;76974;51.278;16.870;2024-03-17T09:59:55;100861.56;;;6.24;57.04
86320;BME280;76974;51.278;16.870;2024-03-17T10:02:22;100840.97;;;7.68;52.85
86320;BME280;76974;51.278;16.870;2024-03-17T10:04:49;100845.31;;;7.61;54.93
86320;BME280;76974;51.278;16.870;2024-03-17T10:07:16;100833.72;;;9.79;48.44
86320;BME280;76974;51.278;16.870;2024-03-17T10:09:43;100809.16;;;7.98;48.87
86320;BME280;76974;51.278;16.870;2024-03-17T10:12:27;100840.34;;;7.74;51.81
86320;BME280;76974;51.278;16.870;2024-03-17T10:15:00;100837.34;;;7.78;52.90
86320;BME280;76974;51.278;16.870;2024-03-17T10:17:33;100837.47;;;7.32;53.35
86320;BME280;76974;51.278;16.870;2024-03-17T10:20:23;100845.22;;;7.18;54.33
86320;BME280;76974;51.278;16.870;2024-03-17T10:22:59;100814.19;;;6.51;54.71
86320;BME280;76974;51.278;16.870;2024-03-17T10:25:29;100829.47;;;6.50;54.39
86320;BME280;76974;51.278;16.870;2024-03-17T10:27:56;100823.59;;;7.45;50.72
86320;BME280;76974;51.278;16.870;2024-03-17T10:30:24;100829.75;;;8.25;51.97
86320;BME280;76974;51.278;16.870;2024-03-17T10:32:53;100817.31;;;9.65;45.42
86320;BME280;76974;51.278;16.870;2024-03-17T10:35:35;100828.34;;;9.47;46.89
86320;BME280;76974;51.278;16.870;2024-03-17T10:38:07;100826.47;;;9.72;49.15
86320;BME280;76974;51.278;16.870;2024-03-17T10:40:34;100823.47;;;8.84;47.60
86320;BME280;76974;51.278;16.870;2024-03-17T10:43:03;100818.94;;;8.51;48.17
86320;BME280;76974;51.278;16.870;2024-03-17T10:45:30;100834.38;;;9.33;48.18
86320;BME280;76974;51.278;16.870;2024-03-17T10:48:07;100837.44;;;9.70;46.66
86320;BME280;76974;51.278;16.870;2024-03-17T10:50:39;100828.91;;;8.58;50.78
86320;BME280;76974;51.278;16.870;2024-03-17T10:53:06;100839.97;;;7.34;52.09
86320;BME280;76974;51.278;16.870;2024-03-17T10:55:44;100827.34;;;8.39;48.20
86320;BME280;76974;51.278;16.870;2024-03-17T11:00:58;100838.25;;;7.86;51.80
86320;BME280;76974;51.278;16.870;2024-03-17T11:03:34;100842.16;;;7.48;52.87
86320;BME280;76974;51.278;16.870;2024-03-17T11:06:03;100834.88;;;8.10;52.35
86320;BME280;76974;51.278;16.870;2024-03-17T11:08:33;100836.56;;;7.85;51.09
86320;BME280;76974;51.278;16.870;2024-03-17T11:11:00;100825.03;;;6.86;51.25
86320;BME280;76974;51.278;16.870;2024-03-17T11:13:29;100817.50;;;7.07;53.71
86320;BME280;76974;51.278;16.870;2024-03-17T11:15:57;100828.13;;;8.66;48.41
86320;BME280;76974;51.278;16.870;2024-03-17T11:18:39;100822.66;;;7.36;52.52
86320;BME280;76974;51.278;16.870;2024-03-17T11:21:21;100820.09;;;6.82;52.80
86320;BME280;76974;51.278;16.870;2024-03-17T11:24:03;100813.84;;;7.88;50.15
86320;BME280;76974;51.278;16.870;2024-03-17T11:26:34;100809.19;;;9.97;45.66
86320;BME280;76974;51.278;16.870;2024-03-17T11:29:03;100799.56;;;9.13;45.50
86320;BME280;76974;51.278;16.870;2024-03-17T11:33:59;100810.25;;;8.73;44.27
86320;BME280;76974;51.278;16.870;2024-03-17T11:36:36;100780.56;;;8.05;47.19
86320;BME280;76974;51.278;16.870;2024-03-17T11:39:08;100820.25;;;7.95;48.81
86320;BME280;76974;51.278;16.870;2024-03-17T11:41:54;100807.19;;;7.56;47.57
86320;BME280;76974;51.278;16.870;2024-03-17T11:47:04;100795.72;;;9.57;44.49
86320;BME280;76974;51.278;16.870;2024-03-17T11:49:34;100797.91;;;9.61;47.47
86320;BME280;76974;51.278;16.870;2024-03-17T11:52:05;100790.03;;;8.35;44.15
86320;BME280;76974;51.278;16.870;2024-03-17T11:54:39;100773.75;;;8.27;46.23
86320;BME280;76974;51.278;16.870;2024-03-17T11:57:10;100803.34;;;7.85;50.15
86320;BME280;76974;51.278;16.870;2024-03-17T11:59:37;100797.22;;;9.92;47.86
86320;BME280;76974;51.278;16.870;2024-03-17T12:04:49;100798.84;;;8.19;47.00
86320;BME280;76974;51.278;16.870;2024-03-17T12:07:18;100785.91;;;9.56;47.95
86320;BME280;76974;51.278;16.870;2024-03-17T12:09:51;100782.69;;;9.11;47.33
86320;BME280;76974;51.278;16.870;2024-03-17T12:12:27;100765.28;;;9.06;44.13
86320;BME280;76974;51.278;16.870;2024-03-17T12:15:20;100761.03;;;11.10;39.88
86320;BME280;76974;51.278;16.870;2024-03-17T12:17:52;100778.97;;;9.37;46.20
86320;BME280;76974;51.278;16.870;2024-03-17T12:20:21;100772.88;;;9.83;44.93
86320;BME280;76974;51.278;16.870;2024-03-17T12:22:47;100772.81;;;8.78;44.18
86320;BME280;76974;51.278;16.870;2024-03-17T12:25:18;100793.22;;;8.04;48.99
86320;BME280;76974;51.278;16.870;2024-03-17T12:27:45;100786.59;;;7.73;49.35
86320;BME280;76974;51.278;16.870;2024-03-17T12:30:12;100769.16;;;8.45;47.07
86320;BME280;76974;51.278;16.870;2024-03-17T12:32:39;100757.50;;;7.76;44.21
86320;BME280;76974;51.278;16.870;2024-03-17T12:35:12;100760.44;;;7.91;45.23
86320;BME280;76974;51.278;16.870;2024-03-17T12:37:39;100754.53;;;8.22;50.40
86320;BME280;76974;51.278;16.870;2024-03-17T12:40:18;100775.09;;;8.49;48.59
86320;BME280;76974;51.278;16.870;2024-03-17T12:42:48;100779.75;;;8.80;49.71
86320;BME280;76974;51.278;16.870;2024-03-17T12:45:19;100763.72;;;10.01;45.47
86320;BME280;76974;51.278;16.870;2024-03-17T12:47:51;100750.25;;;9.76;45.33
86320;BME280;76974;51.278;16.870;2024-03-17T12:50:17;100767.34;;;9.28;42.81
86320;BME280;76974;51.278;16.870;2024-03-17T12:52:52;100767.91;;;10.19;42.94
86320;BME280;76974;51.278;16.870;2024-03-17T12:55:19;100765.13;;;9.40;42.20
86320;BME280;76974;51.278;16.870;2024-03-17T13:01:08;100766.31;;;10.41;40.97
86320;BME280;76974;51.278;16.870;2024-03-17T13:03:35;100765.47;;;9.77;40.89
86320;BME280;76974;51.278;16.870;2024-03-17T13:06:02;100752.28;;;9.74;40.43
86320;BME280;76974;51.278;16.870;2024-03-17T13:08:29;100751.22;;;9.83;42.57
86320;BME280;76974;51.278;16.870;2024-03-17T13:10:57;100752.28;;;9.74;41.13
86320;BME280;76974;51.278;16.870;2024-03-17T13:13:23;100749.72;;;10.44;39.78
86320;BME280;76974;51.278;16.870;2024-03-17T13:15:49;100725.59;;;10.27;39.03
86320;BME280;76974;51.278;16.870;2024-03-17T13:18:17;100729.34;;;10.56;40.43
86320;BME280;76974;51.278;16.870;2024-03-17T13:20:49;100744.13;;;9.82;40.52
86320;BME280;76974;51.278;16.870;2024-03-17T13:23:23;100740.06;;;9.78;39.66
86320;BME280;76974;51.278;16.870;2024-03-17T13:25:51;100726.78;;;10.16;39.79
86320;BME280;76974;51.278;16.870;2024-03-17T13:28:19;100716.69;;;10.80;39.93
86320;BME280;76974;51.278;16.870;2024-03-17T13:30:45;100730.78;;;9.89;41.35
86320;BME280;76974;51.278;16.870;2024-03-17T13:33:17;100730.00;;;9.15;40.77
86320;BME280;76974;51.278;16.870;2024-03-17T13:35:43;100700.91;;;9.74;44.31
86320;BME280;76974;51.278;16.870;2024-03-17T13:38:11;100734.72;;;8.05;44.36
86320;BME280;76974;51.278;16.870;2024-03-17T13:40:39;100707.84;;;8.21;42.01
86320;BME280;76974;51.278;16.870;2024-03-17T13:43:08;100746.22;;;9.40;42.88
86320;BME280;76974;51.278;16.870;2024-03-17T13:45:39;100732.34;;;9.59;39.92
86320;BME280;76974;51.278;16.870;2024-03-17T13:48:05;100728.31;;;9.14;41.24
86320;BME280;76974;51.278;16.870;2024-03-17T13:50:32;100727.31;;;9.32;40.99
86320;BME280;76974;51.278;16.870;2024-03-17T13:52:59;100734.72;;;9.22;42.65
86320;BME280;76974;51.278;16.870;2024-03-17T13:55:25;100754.13;;;8.85;42.50
86320;BME280;76974;51.278;16.870;2024-03-17T13:57:53;100740.22;;;8.21;43.43
86320;BME280;76974;51.278;16.870;2024-03-17T14:00:29;100757.66;;;7.75;47.05
86320;BME280;76974;51.278;16.870;2024-03-17T14:02:57;100751.03;;;7.26;45.17
86320;BME280;76974;51.278;16.870;2024-03-17T14:05:24;100747.72;;;7.75;48.56
86320;BME280;76974;51.278;16.870;2024-03-17T14:07:53;100733.16;;;8.70;42.83
86320;BME280;76974;51.278;16.870;2024-03-17T14:10:25;100731.53;;;8.35;42.10
86320;BME280;76974;51.278;16.870;2024-03-17T14:12:52;100731.25;;;8.55;41.39
86320;BME280;76974;51.278;16.870;2024-03-17T14:15:22;100743.84;;;8.38;41.97
86320;BME280;76974;51.278;16.870;2024-03-17T14:17:48;100737.09;;;9.08;42.44
86320;BME280;76974;51.278;16.870;2024-03-17T14:20:15;100724.06;;;8.79;41.19
86320;BME280;76974;51.278;16.870;2024-03-17T14:22:48;100713.16;;;7.45;42.88
86320;BME280;76974;51.278;16.870;2024-03-17T14:25:18;100739.00;;;7.38;43.31
86320;BME280;76974;51.278;16.870;2024-03-17T14:27:44;100735.63;;;7.36;42.48
86320;BME280;76974;51.278;16.870;2024-03-17T14:30:15;100733.13;;;8.62;41.63
86320;BME280;76974;51.278;16.870;2024-03-17T14:32:41;100717.56;;;8.14;43.34
86320;BME280;76974;51.278;16.870;2024-03-17T14:35:14;100739.75;;;8.92;40.22
86320;BME280;76974;51.278;16.870;2024-03-17T14:37:46;100737.75;;;8.36;42.72
86320;BME280;76974;51.278;16.870;2024-03-17T14:40:17;100721.91;;;8.99;41.84
86320;BME280;76974;51.278;16.870;2024-03-17T14:42:48;100726.81;;;8.45;43.33
86320;BME280;76974;51.278;16.870;2024-03-17T14:45:15;100706.00;;;8.30;44.22
86320;BME280;76974;51.278;16.870;2024-03-17T14:47:42;100736.53;;;8.80;44.30
86320;BME280;76974;51.278;16.870;2024-03-17T14:50:10;100726.22;;;8.76;42.78
86320;BME280;76974;51.278;16.870;2024-03-17T14:52:51;100698.34;;;8.09;44.02
86320;BME280;76974;51.278;16.870;2024-03-17T14:55:18;100718.47;;;8.23;44.53
86320;BME280;76974;51.278;16.870;2024-03-17T14:57:46;100725.53;;;7.64;46.69
86320;BME280;76974;51.278;16.870;2024-03-17T15:00:12;100739.31;;;7.35;47.14
86320;BME280;76974;51.278;16.870;2024-03-17T15:02:43;100736.09;;;7.31;48.01
86320;BME280;76974;51.278;16.870;2024-03-17T15:05:09;100707.75;;;6.66;48.12
86320;BME280;76974;51.278;16.870;2024-03-17T15:07:35;100724.78;;;7.28;47.37
86320;BME280;76974;51.278;16.870;2024-03-17T15:10:01;100714.94;;;7.62;45.69
86320;BME280;76974;51.278;16.870;2024-03-17T15:12:33;100733.78;;;7.19;49.22
86320;BME280;76974;51.278;16.870;2024-03-17T15:15:03;100737.97;;;7.31;49.17
86320;BME280;76974;51.278;16.870;2024-03-17T15:17:36;100742.81;;;7.10;49.66
86320;BME280;76974;51.278;16.870;2024-03-17T15:20:02;100730.31;;;7.44;49.67
86320;BME280;76974;51.278;16.870;2024-03-17T15:22:49;100737.56;;;7.26;48.70
86320;BME280;76974;51.278;16.870;2024-03-17T15:25:17;100736.66;;;6.64;49.27
86320;BME280;76974;51.278;16.870;2024-03-17T15:27:44;100727.72;;;6.63;49.44
86320;BME280;76974;51.278;16.870;2024-03-17T15:30:16;100733.66;;;6.67;50.76
86320;BME280;76974;51.278;16.870;2024-03-17T15:32:48;100734.34;;;6.69;54.71
86320;BME280;76974;51.278;16.870;2024-03-17T15:35:16;100734.72;;;6.74;51.89
86320;BME280;76974;51.278;16.870;2024-03-17T15:37:45;100738.50;;;6.63;52.30
86320;BME280;76974;51.278;16.870;2024-03-17T15:40:11;100721.09;;;6.58;52.30
86320;BME280;76974;51.278;16.870;2024-03-17T15:42:46;100746.56;;;6.63;53.28
86320;BME280;76974;51.278;16.870;2024-03-17T15:45:13;100735.47;;;6.49;52.42
86320;BME280;76974;51.278;16.870;2024-03-17T15:47:39;100744.09;;;6.52;54.33
86320;BME280;76974;51.278;16.870;2024-03-17T15:50:05;100752.38;;;6.41;52.57
86320;BME280;76974;51.278;16.870;2024-03-17T15:52:31;100732.78;;;6.21;54.17
86320;BME280;76974;51.278;16.870;2024-03-17T15:54:56;100744.84;;;6.17;54.13
86320;BME280;76974;51.278;16.870;2024-03-17T15:57:23;100754.00;;;6.24;54.44
86320;BME280;76974;51.278;16.870;2024-03-17T15:59:51;100743.75;;;6.10;57.99
86320;BME280;76974;51.278;16.870;2024-03-17T16:02:20;100754.78;;;6.07;56.95
86320;BME280;76974;51.278;16.870;2024-03-17T16:04:49;100753.56;;;5.92;56.00
86320;BME280;76974;51.278;16.870;2024-03-17T16:07:20;100755.28;;;5.93;56.23
86320;BME280;76974;51.278;16.870;2024-03-17T16:09:47;100761.75;;;6.00;55.63
86320;BME280;76974;51.278;16.870;2024-03-17T16:12:19;100751.72;;;5.83;54.84
86320;BME280;76974;51.278;16.870;2024-03-17T16:14:46;100745.53;;;5.73;56.12